createdAt,value
2023-10-09T00:00:35.149Z,12.50
2023-10-09T00:01:35.169Z,12.55
2023-10-09T00:02:36.188Z,12.54
2023-10-09T00:03:35.081Z,12.54
2023-10-09T00:04:35.126Z,12.55
2023-10-09T00:05:35.034Z,12.54
2023-10-09T00:06:35.982Z,12.50
2023-10-09T00:07:35.941Z,12.46
2023-10-09T00:08:34.997Z,12.42
2023-10-09T00:09:35.000Z,12.42
2023-10-09T00:10:35.131Z,12.32
2023-10-09T00:11:34.998Z,12.28
2023-10-09T00:12:34.983Z,12.22
2023-10-09T00:13:35.876Z,12.18
2023-10-09T00:14:35.023Z,12.17
2023-10-09T00:15:35.031Z,12.15
2023-10-09T00:16:35.135Z,12.13
2023-10-09T00:17:35.096Z,12.17
2023-10-09T00:18:35.013Z,12.20
2023-10-09T00:19:35.800Z,12.18
2023-10-09T00:20:35.010Z,12.17
2023-10-09T00:21:34.808Z,12.13
2023-10-09T00:22:34.831Z,12.02
2023-10-09T00:23:34.786Z,11.95
2023-10-09T00:24:36.879Z,11.88
2023-10-09T00:25:34.766Z,11.87
2023-10-09T00:26:34.866Z,11.90
2023-10-09T00:27:34.787Z,11.95
2023-10-09T00:28:34.692Z,11.94
2023-10-09T00:29:35.672Z,11.95
2023-10-09T00:30:34.911Z,12.00
2023-10-09T00:31:35.145Z,12.00
2023-10-09T00:32:34.745Z,12.02
2023-10-09T00:33:34.900Z,12.06
2023-10-09T00:34:35.572Z,12.07
2023-10-09T00:35:34.683Z,12.09
2023-10-09T00:36:34.583Z,12.07
2023-10-09T00:37:34.640Z,12.06
2023-10-09T00:38:34.653Z,12.04
2023-10-09T00:39:35.510Z,12.04
2023-10-09T00:40:34.656Z,12.03
2023-10-09T00:41:34.558Z,11.99
2023-10-09T00:42:34.697Z,11.97
2023-10-09T00:43:34.543Z,11.88
2023-10-09T00:44:35.405Z,11.86
2023-10-09T00:45:34.539Z,11.80
2023-10-09T00:46:34.588Z,11.80
2023-10-09T00:47:34.577Z,11.80
2023-10-09T00:48:34.534Z,11.78
2023-10-09T00:49:35.467Z,11.78
2023-10-09T00:50:34.461Z,11.80
2023-10-09T00:51:34.511Z,11.80
2023-10-09T00:52:35.475Z,11.81
2023-10-09T00:53:34.391Z,11.84
2023-10-09T00:54:34.411Z,11.84
2023-10-09T00:55:35.490Z,11.83
2023-10-09T00:56:34.418Z,11.77
2023-10-09T00:57:34.402Z,11.80
2023-10-09T00:58:34.434Z,11.77
2023-10-09T00:59:34.313Z,11.73
2023-10-09T01:00:34.699Z,11.70
2023-10-09T01:01:35.356Z,11.65
2023-10-09T01:02:34.407Z,11.65
2023-10-09T01:03:34.429Z,11.66
2023-10-09T01:04:34.349Z,11.66
2023-10-09T01:05:34.224Z,11.60
2023-10-09T01:06:34.259Z,11.62
2023-10-09T01:07:35.402Z,11.63
2023-10-09T01:08:34.277Z,11.65
2023-10-09T01:09:34.259Z,11.66
2023-10-09T01:10:34.361Z,11.63
2023-10-09T01:11:34.281Z,11.65
2023-10-09T01:12:34.212Z,11.62
2023-10-09T01:13:35.081Z,11.65
2023-10-09T01:14:34.252Z,11.66
2023-10-09T01:15:34.254Z,11.70
2023-10-09T01:16:34.241Z,11.69
2023-10-09T01:17:34.147Z,11.70
2023-10-09T01:18:34.197Z,11.63
2023-10-09T01:19:35.110Z,11.66
2023-10-09T01:20:34.184Z,11.70
2023-10-09T01:21:34.302Z,11.73
2023-10-09T01:22:34.035Z,11.77
2023-10-09T01:23:34.908Z,11.78
2023-10-09T01:24:34.085Z,11.81
2023-10-09T01:25:34.973Z,11.83
2023-10-09T01:26:34.140Z,11.81
2023-10-09T01:27:34.225Z,11.80
2023-10-09T01:28:33.962Z,11.81
2023-10-09T01:29:33.971Z,11.80
2023-10-09T01:30:34.933Z,11.81
2023-10-09T01:31:33.984Z,11.84
2023-10-09T01:32:33.989Z,11.84
2023-10-09T01:33:33.982Z,11.83
2023-10-09T01:34:33.935Z,11.78
2023-10-09T01:35:33.865Z,11.77
2023-10-09T01:36:34.833Z,11.73
2023-10-09T01:37:33.911Z,11.72
2023-10-09T01:38:33.874Z,11.69
2023-10-09T01:39:33.987Z,11.68
2023-10-09T01:40:33.806Z,11.70
2023-10-09T01:41:33.839Z,11.72
2023-10-09T01:42:35.196Z,11.66
2023-10-09T01:43:33.906Z,11.65
2023-10-09T01:44:33.773Z,11.68
2023-10-09T01:45:33.838Z,11.68
2023-10-09T01:46:33.760Z,11.66
2023-10-09T01:47:34.751Z,11.63
2023-10-09T01:48:33.793Z,11.62
2023-10-09T01:49:33.967Z,11.55
2023-10-09T01:50:33.702Z,11.52
2023-10-09T01:51:33.784Z,11.52
2023-10-09T01:52:34.029Z,11.54
2023-10-09T01:53:34.573Z,11.51
2023-10-09T01:54:33.697Z,11.51
2023-10-09T01:55:33.789Z,11.52
2023-10-09T01:56:33.587Z,11.52
2023-10-09T01:57:33.665Z,11.52
2023-10-09T01:58:33.655Z,11.54
2023-10-09T01:59:34.486Z,11.54
2023-10-09T02:00:33.580Z,11.51
2023-10-09T02:01:33.586Z,11.45
2023-10-09T02:02:33.624Z,11.40
2023-10-09T02:03:33.582Z,11.36
2023-10-09T02:04:33.594Z,11.32
2023-10-09T02:05:34.438Z,11.30
2023-10-09T02:07:14.531Z,11.30
2023-10-09T02:07:33.463Z,11.29
2023-10-09T02:08:33.467Z,11.36
2023-10-09T02:09:33.586Z,11.43
2023-10-09T02:10:33.450Z,11.45
2023-10-09T02:11:34.483Z,11.47
2023-10-09T02:12:33.420Z,11.48
2023-10-09T02:13:33.529Z,11.52
2023-10-09T02:14:33.427Z,11.54
2023-10-09T02:15:33.648Z,11.55
2023-10-09T02:16:33.445Z,11.57
2023-10-09T02:17:34.396Z,11.59
2023-10-09T02:18:33.350Z,11.60
2023-10-09T02:19:33.445Z,11.57
2023-10-09T02:20:33.360Z,11.51
2023-10-09T02:21:33.420Z,11.47
2023-10-09T02:22:34.335Z,11.50
2023-10-09T02:23:33.269Z,11.51
2023-10-09T02:24:33.239Z,11.51
2023-10-09T02:25:33.442Z,11.54
2023-10-09T02:26:33.195Z,11.48
2023-10-09T02:27:33.273Z,11.48
2023-10-09T02:28:34.250Z,11.47
2023-10-09T02:29:33.207Z,11.40
2023-10-09T02:30:33.559Z,11.41
2023-10-09T02:31:33.239Z,11.45
2023-10-09T02:32:33.381Z,11.47
2023-10-09T02:33:33.156Z,11.47
2023-10-09T02:34:34.267Z,11.44
2023-10-09T02:35:33.089Z,11.36
2023-10-09T02:36:33.370Z,11.32
2023-10-09T02:37:33.153Z,11.29
2023-10-09T02:38:33.185Z,11.26
2023-10-09T02:39:33.118Z,11.14
2023-10-09T02:40:34.089Z,11.05
2023-10-09T02:41:33.243Z,10.93
2023-10-09T02:42:33.054Z,10.92
2023-10-09T02:43:33.173Z,10.97
2023-10-09T02:44:33.163Z,11.02
2023-10-09T02:45:33.077Z,11.07
2023-10-09T02:46:33.995Z,11.10
2023-10-09T02:47:33.037Z,11.15
2023-10-09T02:48:32.976Z,11.23
2023-10-09T02:49:33.115Z,11.29
2023-10-09T02:50:32.939Z,11.36
2023-10-09T02:51:34.281Z,11.41
2023-10-09T02:52:32.979Z,11.44
2023-10-09T02:53:32.955Z,11.45
2023-10-09T02:54:32.897Z,11.44
2023-10-09T02:55:32.888Z,11.35
2023-10-09T02:56:32.881Z,11.29
2023-10-09T02:57:33.822Z,11.26
2023-10-09T02:58:32.878Z,11.25
2023-10-09T02:59:32.765Z,11.26
2023-10-09T03:00:32.916Z,11.26
2023-10-09T03:01:32.841Z,11.32
2023-10-09T03:02:33.695Z,11.33
2023-10-09T03:03:32.905Z,11.36
2023-10-09T03:04:32.987Z,11.36
2023-10-09T03:05:32.694Z,11.41
2023-10-09T03:06:32.780Z,11.43
2023-10-09T03:07:33.694Z,11.40
2023-10-09T03:08:32.724Z,11.37
2023-10-09T03:09:32.741Z,11.37
2023-10-09T03:10:32.742Z,11.36
2023-10-09T03:11:32.658Z,11.33
2023-10-09T03:12:32.666Z,11.30
2023-10-09T03:13:33.586Z,11.30
2023-10-09T03:14:32.639Z,11.30
2023-10-09T03:15:32.638Z,11.33
2023-10-09T03:16:32.814Z,11.35
2023-10-09T03:17:32.623Z,11.35
2023-10-09T03:18:32.612Z,11.37
2023-10-09T03:19:33.484Z,11.41
2023-10-09T03:20:32.534Z,11.43
2023-10-09T03:21:32.625Z,11.44
2023-10-09T03:22:32.768Z,11.43
2023-10-09T03:23:32.539Z,11.37
2023-10-09T03:24:33.434Z,11.32
2023-10-09T03:25:32.549Z,11.30
2023-10-09T03:26:32.577Z,11.29
2023-10-09T03:27:32.527Z,11.25
2023-10-09T03:28:32.701Z,11.25
2023-10-09T03:29:33.405Z,11.26
2023-10-09T03:30:32.613Z,11.26
2023-10-09T03:31:32.457Z,11.29
2023-10-09T03:32:32.546Z,11.25
2023-10-09T03:33:32.444Z,11.18
2023-10-09T03:34:33.443Z,11.19
2023-10-09T03:35:32.360Z,11.19
2023-10-09T03:36:32.362Z,11.19
2023-10-09T03:37:32.578Z,11.25
2023-10-09T03:38:32.369Z,11.25
2023-10-09T03:39:32.640Z,11.23
2023-10-09T03:40:33.261Z,11.22
2023-10-09T03:41:32.311Z,11.19
2023-10-09T03:42:32.292Z,11.18
2023-10-09T03:43:32.269Z,11.18
2023-10-09T03:44:32.351Z,11.23
2023-10-09T03:45:32.334Z,11.27
2023-10-09T03:46:33.197Z,11.25
2023-10-09T03:47:32.242Z,11.25
2023-10-09T03:48:32.223Z,11.23
2023-10-09T03:49:32.200Z,11.25
2023-10-09T03:50:32.312Z,11.26
2023-10-09T03:51:32.302Z,11.25
2023-10-09T03:52:33.259Z,11.26
2023-10-09T03:53:32.107Z,11.27
2023-10-09T03:54:32.140Z,11.29
2023-10-09T03:55:32.114Z,11.29
2023-10-09T03:56:32.112Z,11.30
2023-10-09T03:57:32.518Z,11.29
2023-10-09T03:58:33.208Z,11.25
2023-10-09T03:59:32.131Z,11.25
2023-10-09T04:00:32.063Z,11.23
2023-10-09T04:01:32.347Z,11.19
2023-10-09T04:02:32.126Z,11.19
2023-10-09T04:03:33.160Z,11.18
2023-10-09T04:04:32.086Z,11.19
2023-10-09T04:05:32.058Z,11.22
2023-10-09T04:06:32.037Z,11.26
2023-10-09T04:07:32.060Z,11.29
2023-10-09T04:08:32.015Z,11.32
2023-10-09T04:09:32.951Z,11.33
2023-10-09T04:10:32.043Z,11.33
2023-10-09T04:11:31.996Z,11.35
2023-10-09T04:12:32.045Z,11.30
2023-10-09T04:13:32.140Z,11.22
2023-10-09T04:14:31.939Z,11.23
2023-10-09T04:15:32.795Z,11.22
2023-10-09T04:16:31.931Z,11.25
2023-10-09T04:17:31.856Z,11.26
2023-10-09T04:18:32.036Z,11.27
2023-10-09T04:19:31.880Z,11.29
2023-10-09T04:20:32.729Z,11.33
2023-10-09T04:21:31.937Z,11.35
2023-10-09T04:22:31.764Z,11.36
2023-10-09T04:23:32.157Z,11.37
2023-10-09T04:24:32.013Z,11.37
2023-10-09T04:25:32.688Z,11.35
2023-10-09T04:26:31.754Z,11.33
2023-10-09T04:27:31.730Z,11.32
2023-10-09T04:28:31.832Z,11.33
2023-10-09T04:29:31.709Z,11.32
2023-10-09T04:30:31.811Z,11.33
2023-10-09T04:31:32.870Z,11.33
2023-10-09T04:32:31.639Z,11.33
2023-10-09T04:33:32.647Z,11.33
2023-10-09T04:34:31.836Z,11.35
2023-10-09T04:35:31.575Z,11.33
2023-10-09T04:36:31.848Z,11.30
2023-10-09T04:37:38.366Z,11.30
2023-10-09T04:38:31.648Z,11.32
2023-10-09T04:39:31.703Z,11.33
2023-10-09T04:40:31.523Z,11.30
2023-10-09T04:41:31.540Z,11.26
2023-10-09T04:42:31.559Z,11.26
2023-10-09T04:43:38.515Z,11.29
2023-10-09T04:44:31.477Z,11.26
2023-10-09T04:45:31.778Z,11.25
2023-10-09T04:46:31.473Z,11.25
2023-10-09T04:47:31.620Z,11.23
2023-10-09T04:48:31.476Z,11.25
2023-10-09T04:49:32.538Z,11.23
2023-10-09T04:50:31.636Z,11.15
2023-10-09T04:51:31.536Z,11.10
2023-10-09T04:52:31.760Z,11.08
2023-10-09T04:53:31.592Z,11.02
2023-10-09T04:54:31.397Z,11.00
2023-10-09T04:55:32.308Z,10.99
2023-10-09T04:56:31.409Z,10.97
2023-10-09T04:57:31.344Z,10.96
2023-10-09T04:58:31.792Z,10.93
2023-10-09T04:59:31.408Z,10.92
2023-10-09T05:00:31.387Z,10.81
2023-10-09T05:01:32.230Z,10.74
2023-10-09T05:02:31.252Z,10.63
2023-10-09T05:03:31.262Z,10.59
2023-10-09T05:04:31.274Z,10.56
2023-10-09T05:05:31.206Z,10.49
2023-10-09T05:06:32.512Z,10.41
2023-10-09T05:07:31.360Z,10.38
2023-10-09T05:08:31.260Z,10.40
2023-10-09T05:09:31.207Z,10.41
2023-10-09T05:10:31.219Z,10.38
2023-10-09T05:11:31.164Z,10.31
2023-10-09T05:12:32.192Z,10.25
2023-10-09T05:13:31.138Z,10.20
2023-10-09T05:14:31.123Z,10.22
2023-10-09T05:15:31.283Z,10.22
2023-10-09T05:16:31.104Z,10.19
2023-10-09T05:17:32.103Z,10.19
2023-10-09T05:18:31.142Z,10.23
2023-10-09T05:19:31.196Z,10.20
2023-10-09T05:20:31.064Z,10.23
2023-10-09T05:21:31.066Z,10.26
2023-10-09T05:22:31.912Z,10.30
2023-10-09T05:23:31.119Z,10.26
2023-10-09T05:24:31.055Z,10.31
2023-10-09T05:25:30.925Z,10.34
2023-10-09T05:26:30.923Z,10.40
2023-10-09T05:27:31.051Z,10.44
2023-10-09T05:28:37.197Z,10.44
2023-10-09T05:29:30.933Z,10.49
2023-10-09T05:30:31.226Z,10.49
2023-10-09T05:31:30.955Z,10.53
2023-10-09T05:32:31.000Z,10.53
2023-10-09T05:33:30.890Z,10.49
2023-10-09T05:34:31.920Z,10.42
2023-10-09T05:35:30.880Z,10.40
2023-10-09T05:36:30.900Z,10.38
2023-10-09T05:37:30.840Z,10.35
2023-10-09T05:38:30.775Z,10.34
2023-10-09T05:39:30.856Z,10.34
2023-10-09T05:40:31.758Z,10.33
2023-10-09T05:41:30.757Z,10.34
2023-10-09T05:42:30.964Z,10.35
2023-10-09T05:43:30.754Z,10.37
2023-10-09T05:44:30.773Z,10.35
2023-10-09T05:45:30.778Z,10.35
2023-10-09T05:46:31.874Z,10.37
2023-10-09T05:47:30.813Z,10.42
2023-10-09T05:48:30.854Z,10.44
2023-10-09T05:49:30.670Z,10.46
2023-10-09T05:50:30.651Z,10.48
2023-10-09T05:51:31.704Z,10.48
2023-10-09T05:52:30.648Z,10.53
2023-10-09T05:53:30.677Z,10.53
2023-10-09T05:54:30.694Z,10.51
2023-10-09T05:55:30.543Z,10.53
2023-10-09T05:56:31.502Z,10.56
2023-10-09T05:57:30.643Z,10.60
2023-10-09T05:58:30.563Z,10.59
2023-10-09T05:59:30.561Z,10.49
2023-10-09T06:00:30.569Z,10.44
2023-10-09T06:01:30.563Z,10.42
2023-10-09T06:02:31.495Z,10.41
2023-10-09T06:03:30.568Z,10.46
2023-10-09T06:04:30.628Z,10.48
2023-10-09T06:05:30.567Z,10.49
2023-10-09T06:06:30.446Z,10.56
2023-10-09T06:07:32.085Z,10.54
2023-10-09T06:08:30.551Z,10.59
2023-10-09T06:09:30.455Z,10.54
2023-10-09T06:10:30.521Z,10.57
2023-10-09T06:11:30.494Z,10.63
2023-10-09T06:12:30.803Z,10.68
2023-10-09T06:13:31.337Z,10.71
2023-10-09T06:14:30.507Z,10.75
2023-10-09T06:15:31.079Z,10.79
2023-10-09T06:16:30.520Z,10.81
2023-10-09T06:17:30.312Z,10.84
2023-10-09T06:18:31.405Z,10.87
2023-10-09T06:19:30.512Z,10.90
2023-10-09T06:20:30.312Z,10.86
2023-10-09T06:21:30.320Z,10.86
2023-10-09T06:22:30.272Z,10.84
2023-10-09T06:23:30.425Z,10.86
2023-10-09T06:24:31.182Z,10.84
2023-10-09T06:25:30.226Z,10.86
2023-10-09T06:26:30.193Z,10.84
2023-10-09T06:27:30.267Z,10.81
2023-10-09T06:28:30.776Z,10.79
2023-10-09T06:29:30.313Z,10.81
2023-10-09T06:30:31.169Z,10.79
2023-10-09T06:31:30.376Z,10.79
2023-10-09T06:32:30.144Z,10.78
2023-10-09T06:33:30.129Z,10.79
2023-10-09T06:34:30.259Z,10.82
2023-10-09T06:35:30.153Z,10.86
2023-10-09T06:36:31.083Z,10.89
2023-10-09T06:37:30.078Z,10.90
2023-10-09T06:38:30.025Z,10.96
2023-10-09T06:39:30.241Z,11.02
2023-10-09T06:40:30.096Z,11.00
2023-10-09T06:41:30.047Z,11.02
2023-10-09T06:42:30.967Z,11.07
2023-10-09T06:43:30.179Z,11.11
2023-10-09T06:44:29.943Z,11.14
2023-10-09T06:45:30.169Z,11.10
2023-10-09T06:46:29.981Z,11.08
2023-10-09T06:47:30.878Z,11.05
2023-10-09T06:48:30.201Z,11.05
2023-10-09T06:49:29.903Z,11.08
2023-10-09T06:50:29.894Z,11.08
2023-10-09T06:51:30.097Z,11.05
2023-10-09T06:52:30.801Z,11.02
2023-10-09T06:53:29.824Z,11.00
2023-10-09T06:54:29.885Z,10.99
2023-10-09T06:55:29.912Z,10.94
2023-10-09T06:56:29.778Z,10.94
2023-10-09T06:57:30.784Z,10.92
2023-10-09T06:58:29.883Z,10.93
2023-10-09T06:59:29.807Z,10.94
2023-10-09T07:00:29.808Z,10.94
2023-10-09T07:01:29.813Z,10.90
2023-10-09T07:02:29.740Z,10.90
2023-10-09T07:03:30.666Z,10.93
2023-10-09T07:04:29.912Z,10.99
2023-10-09T07:05:29.867Z,11.02
2023-10-09T07:06:29.692Z,11.05
2023-10-09T07:07:29.705Z,11.04
2023-10-09T07:08:30.579Z,11.00
2023-10-09T07:09:29.716Z,11.04
2023-10-09T07:10:29.658Z,11.07
2023-10-09T07:11:29.789Z,11.08
2023-10-09T07:12:29.675Z,11.10
2023-10-09T07:13:31.248Z,11.11
2023-10-09T07:14:29.572Z,11.14
2023-10-09T07:15:29.652Z,11.17
2023-10-09T07:16:29.607Z,11.18
2023-10-09T07:17:29.536Z,11.22
2023-10-09T07:18:29.564Z,11.17
2023-10-09T07:19:31.224Z,11.17
2023-10-09T07:20:29.553Z,11.18
2023-10-09T07:21:29.556Z,11.17
2023-10-09T07:22:29.457Z,11.18
2023-10-09T07:23:29.567Z,11.18
2023-10-09T07:24:29.532Z,11.19
2023-10-09T07:25:30.577Z,11.23
2023-10-09T07:26:29.433Z,11.25
2023-10-09T07:27:29.471Z,11.23
2023-10-09T07:28:29.444Z,11.26
2023-10-09T07:29:29.608Z,11.25
2023-10-09T07:30:30.574Z,11.22
2023-10-09T07:31:29.426Z,11.25
2023-10-09T07:32:29.442Z,11.22
2023-10-09T07:33:29.393Z,11.22
2023-10-09T07:34:29.336Z,11.22
2023-10-09T07:35:30.329Z,11.26
2023-10-09T07:36:29.350Z,11.25
2023-10-09T07:37:29.536Z,11.22
2023-10-09T07:38:29.349Z,11.15
2023-10-09T07:39:29.334Z,11.15
2023-10-09T07:40:30.401Z,11.15
2023-10-09T07:41:29.293Z,11.18
2023-10-09T07:42:29.272Z,11.18
2023-10-09T07:43:29.260Z,11.17
2023-10-09T07:44:29.347Z,11.18
2023-10-09T07:45:30.376Z,11.15
2023-10-09T07:46:29.341Z,11.12
2023-10-09T07:47:29.321Z,11.07
2023-10-09T07:48:31.717Z,11.07
2023-10-09T07:49:29.142Z,11.08
2023-10-09T07:50:29.104Z,11.11
2023-10-09T07:51:30.141Z,11.14
2023-10-09T07:52:29.243Z,11.17
2023-10-09T07:53:29.090Z,11.12
2023-10-09T07:54:29.120Z,11.12
2023-10-09T07:55:29.042Z,11.15
2023-10-09T07:56:29.093Z,11.18
2023-10-09T07:57:30.723Z,11.19
2023-10-09T07:58:29.061Z,11.19
2023-10-09T07:59:29.009Z,11.18
2023-10-09T08:00:29.145Z,11.22
2023-10-09T08:01:29.120Z,11.19
2023-10-09T08:02:29.001Z,11.23
2023-10-09T08:03:30.008Z,11.23
2023-10-09T08:04:29.332Z,11.25
2023-10-09T08:05:29.081Z,11.27
2023-10-09T08:06:29.153Z,11.27
2023-10-09T08:08:05.448Z,11.25
2023-10-09T08:08:38.350Z,11.27
2023-10-09T08:09:31.378Z,11.32
2023-10-09T08:10:28.831Z,11.35
2023-10-09T08:11:29.145Z,11.40
2023-10-09T08:12:28.850Z,11.43
2023-10-09T08:13:28.981Z,11.47
2023-10-09T08:14:28.854Z,11.51
2023-10-09T08:15:30.088Z,11.54
2023-10-09T08:16:28.910Z,11.54
2023-10-09T08:17:29.025Z,11.59
2023-10-09T08:18:28.805Z,11.62
2023-10-09T08:19:28.799Z,11.63
2023-10-09T08:20:30.202Z,11.65
2023-10-09T08:21:28.874Z,11.66
2023-10-09T08:22:28.815Z,11.65
2023-10-09T08:23:28.778Z,11.65
2023-10-09T08:24:28.712Z,11.63
2023-10-09T08:25:29.979Z,11.60
2023-10-09T08:26:28.656Z,11.62
2023-10-09T08:27:28.886Z,11.63
2023-10-09T08:28:28.600Z,11.66
2023-10-09T08:29:28.674Z,11.66
2023-10-09T08:30:29.806Z,11.66
2023-10-09T08:31:28.669Z,11.69
2023-10-09T08:35:29.784Z,11.51
2023-10-09T08:36:30.711Z,11.47
2023-10-09T08:37:28.564Z,11.47
2023-10-09T08:38:28.570Z,11.45
2023-10-09T08:39:28.716Z,11.47
2023-10-09T08:40:29.212Z,11.47
2023-10-09T08:41:29.543Z,11.47
2023-10-09T08:42:28.520Z,11.47
2023-10-09T08:43:28.707Z,11.51
2023-10-09T08:44:28.543Z,11.54
2023-10-09T08:45:28.600Z,11.54
2023-10-09T08:46:29.829Z,11.51
2023-10-09T08:47:28.521Z,11.50
2023-10-09T08:48:28.400Z,11.48
2023-10-09T08:49:28.819Z,11.47
2023-10-09T08:50:29.279Z,11.50
2023-10-09T08:51:28.566Z,11.48
2023-10-09T08:52:29.617Z,11.48
2023-10-09T08:53:28.555Z,11.47
2023-10-09T08:54:28.317Z,11.52
2023-10-09T08:55:29.556Z,11.54
2023-10-09T08:56:29.845Z,11.52
2023-10-09T08:57:29.479Z,11.47
2023-10-09T08:58:28.389Z,11.45
2023-10-09T08:59:28.557Z,11.48
2023-10-09T09:00:28.281Z,11.48
2023-10-09T09:01:28.435Z,11.45
2023-10-09T09:02:28.280Z,11.43
2023-10-09T09:03:29.148Z,11.44
2023-10-09T09:04:28.247Z,11.45
2023-10-09T09:05:28.336Z,11.45
2023-10-09T09:06:28.193Z,11.47
2023-10-09T09:07:28.168Z,11.47
2023-10-09T09:08:29.075Z,11.50
2023-10-09T09:09:28.124Z,11.50
2023-10-09T09:10:28.141Z,11.52
2023-10-09T09:11:28.137Z,11.54
2023-10-09T09:12:28.089Z,11.59
2023-10-09T09:13:29.136Z,11.59
2023-10-09T09:14:28.060Z,11.62
2023-10-09T09:15:28.162Z,11.62
2023-10-09T09:16:28.053Z,11.65
2023-10-09T09:17:28.071Z,11.68
2023-10-09T09:18:28.196Z,11.66
2023-10-09T09:19:34.366Z,11.65
2023-10-09T09:20:27.932Z,11.66
2023-10-09T09:21:27.978Z,11.68
2023-10-09T09:22:28.120Z,11.70
2023-10-09T09:23:27.912Z,11.69
2023-10-09T09:24:28.848Z,11.70
2023-10-09T09:25:27.980Z,11.69
2023-10-09T09:26:27.979Z,11.65
2023-10-09T09:27:28.136Z,11.63
2023-10-09T09:28:27.899Z,11.63
2023-10-09T09:29:28.816Z,11.65
2023-10-09T09:30:27.979Z,11.69
2023-10-09T09:31:27.924Z,11.69
2023-10-09T09:32:27.888Z,11.72
2023-10-09T09:33:27.826Z,11.78
2023-10-09T09:34:27.970Z,11.81
2023-10-09T09:35:28.732Z,11.83
2023-10-09T09:36:27.895Z,11.87
2023-10-09T09:37:27.835Z,11.90
2023-10-09T09:38:27.723Z,11.87
2023-10-09T09:39:29.285Z,11.90
2023-10-09T09:40:32.194Z,11.90
2023-10-09T09:41:27.880Z,11.91
2023-10-09T09:42:27.805Z,11.88
2023-10-09T09:43:27.676Z,11.87
2023-10-09T09:44:27.749Z,11.87
2023-10-09T09:45:28.637Z,11.86
2023-10-09T09:46:27.946Z,11.87
2023-10-09T09:47:27.900Z,11.88
2023-10-09T09:48:27.675Z,11.88
2023-10-09T09:49:27.707Z,11.90
2023-10-09T09:50:28.604Z,11.90
2023-10-09T09:51:27.982Z,11.90
2023-10-09T09:52:27.622Z,11.87
2023-10-09T09:53:27.578Z,11.87
2023-10-09T09:54:28.030Z,11.90
2023-10-09T09:55:27.706Z,11.90
2023-10-09T09:56:28.531Z,11.88
2023-10-09T09:57:27.588Z,11.88
2023-10-09T09:58:27.572Z,11.84
2023-10-09T09:59:27.876Z,11.80
2023-10-09T10:00:27.561Z,11.77
2023-10-09T10:01:28.560Z,11.77
2023-10-09T10:02:27.664Z,11.77
2023-10-09T10:03:27.481Z,11.75
2023-10-09T10:04:27.479Z,11.72
2023-10-09T10:05:27.434Z,11.73
2023-10-09T10:06:28.365Z,11.73
2023-10-09T10:07:27.439Z,11.73
2023-10-09T10:08:27.334Z,11.75
2023-10-09T10:09:27.381Z,11.77
2023-10-09T10:10:27.540Z,11.77
2023-10-09T10:11:27.329Z,11.75
2023-10-09T10:12:28.237Z,11.73
2023-10-09T10:13:27.372Z,11.75
2023-10-09T10:14:27.516Z,11.75
2023-10-09T10:15:27.323Z,11.73
2023-10-09T10:16:27.347Z,11.75
2023-10-09T10:17:27.527Z,11.72
2023-10-09T10:18:28.276Z,11.70
2023-10-09T10:19:27.256Z,11.70
2023-10-09T10:20:27.256Z,11.69
2023-10-09T10:21:27.199Z,11.68
2023-10-09T10:22:27.313Z,11.68
2023-10-09T10:23:28.069Z,11.70
2023-10-09T10:24:27.313Z,11.70
2023-10-09T10:25:27.187Z,11.70
2023-10-09T10:26:27.291Z,11.72
2023-10-09T10:27:27.121Z,11.75
2023-10-09T10:28:28.090Z,11.77
2023-10-09T10:29:27.113Z,11.78
2023-10-09T10:30:27.358Z,11.80
2023-10-09T10:31:27.148Z,11.84
2023-10-09T10:32:27.090Z,11.86
2023-10-09T10:33:27.165Z,11.87
2023-10-09T10:34:28.124Z,11.84
2023-10-09T10:35:27.099Z,11.87
2023-10-09T10:36:28.010Z,11.84
2023-10-09T10:37:27.062Z,11.81
2023-10-09T10:38:27.006Z,11.77
2023-10-09T10:39:27.984Z,11.77
2023-10-09T10:40:27.088Z,11.78
2023-10-09T10:41:26.911Z,11.77
2023-10-09T10:42:27.019Z,11.80
2023-10-09T10:43:26.963Z,11.86
2023-10-09T10:44:27.067Z,11.91
2023-10-09T10:45:27.789Z,11.95
2023-10-09T10:46:26.944Z,12.00
2023-10-09T10:47:27.044Z,12.06
2023-10-09T10:48:26.825Z,12.09
2023-10-09T10:49:27.136Z,12.10
2023-10-09T10:50:27.798Z,12.10
2023-10-09T10:51:26.782Z,12.12
2023-10-09T10:52:26.878Z,12.15
2023-10-09T10:53:28.792Z,12.20
2023-10-09T10:54:26.769Z,12.22
2023-10-09T10:55:26.859Z,12.27
2023-10-09T10:56:27.805Z,12.28
2023-10-09T10:57:26.798Z,12.28
2023-10-09T10:58:26.911Z,12.28
2023-10-09T10:59:29.550Z,12.28
2023-10-09T11:00:27.385Z,12.29
2023-10-09T11:01:26.758Z,12.28
2023-10-09T11:02:27.692Z,12.28
2023-10-09T11:03:26.962Z,12.27
2023-10-09T11:04:26.844Z,12.24
2023-10-09T11:05:26.666Z,12.20
2023-10-09T11:06:26.900Z,12.13
2023-10-09T11:07:27.535Z,12.13
2023-10-09T11:08:26.616Z,12.15
2023-10-09T11:09:29.698Z,12.13
2023-10-09T11:10:28.146Z,12.17
2023-10-09T11:11:26.683Z,12.15
2023-10-09T11:12:26.520Z,12.18
2023-10-09T11:13:27.566Z,12.18
2023-10-09T11:14:26.571Z,12.21
2023-10-09T11:15:26.546Z,12.24
2023-10-09T11:16:26.971Z,12.27
2023-10-09T11:17:26.502Z,12.32
2023-10-09T11:18:27.550Z,12.36
2023-10-09T11:19:26.422Z,12.40
2023-10-09T11:20:26.452Z,12.45
2023-10-09T11:21:26.489Z,12.46
2023-10-09T11:22:26.388Z,12.47
2023-10-09T11:23:27.329Z,12.49
2023-10-09T11:24:27.038Z,12.53
2023-10-09T11:25:28.095Z,12.54
2023-10-09T11:26:26.373Z,12.57
2023-10-09T11:27:26.439Z,12.64
2023-10-09T11:28:26.435Z,12.68
2023-10-09T11:29:27.324Z,12.73
2023-10-09T11:30:26.343Z,12.76
2023-10-09T11:31:26.422Z,12.79
2023-10-09T11:32:26.355Z,12.82
2023-10-09T11:33:26.351Z,12.85
2023-10-09T11:34:27.535Z,12.83
2023-10-09T11:35:26.466Z,12.82
2023-10-09T11:36:26.544Z,12.83
2023-10-09T11:37:26.329Z,12.87
2023-10-09T11:38:26.217Z,12.91
2023-10-09T11:39:26.406Z,12.91
2023-10-09T11:40:27.233Z,12.97
2023-10-09T11:41:26.227Z,13.00
2023-10-09T11:42:26.255Z,13.03
2023-10-09T11:43:26.250Z,13.08
2023-10-09T11:44:26.222Z,13.03
2023-10-09T11:45:26.777Z,13.00
2023-10-09T11:46:27.132Z,12.93
2023-10-09T11:47:26.381Z,12.83
2023-10-09T11:48:26.087Z,12.82
2023-10-09T11:49:26.126Z,12.83
2023-10-09T11:50:26.361Z,12.87
2023-10-09T11:51:26.230Z,12.95
2023-10-09T11:52:27.020Z,12.97
2023-10-09T11:53:26.062Z,13.01
2023-10-09T11:54:28.253Z,13.04
2023-10-09T11:55:26.063Z,13.11
2023-10-09T11:56:26.027Z,13.12
2023-10-09T11:57:25.950Z,13.18
2023-10-09T11:58:26.978Z,13.23
2023-10-09T11:59:26.032Z,13.22
2023-10-09T12:00:26.117Z,13.20
2023-10-09T12:01:26.137Z,13.18
2023-10-09T12:02:26.095Z,13.16
2023-10-09T12:03:25.991Z,13.12
2023-10-09T12:04:27.169Z,13.08
2023-10-09T12:05:25.881Z,13.04
2023-10-09T12:06:25.931Z,13.00
2023-10-09T12:07:25.911Z,12.97
2023-10-09T12:08:26.036Z,12.91
2023-10-09T12:09:26.863Z,12.86
2023-10-09T12:10:25.976Z,12.83
2023-10-09T12:11:25.874Z,12.80
2023-10-09T12:12:25.819Z,12.79
2023-10-09T12:13:25.984Z,12.76
2023-10-09T12:14:25.764Z,12.75
2023-10-09T12:15:26.682Z,12.76
2023-10-09T12:16:25.943Z,12.78
2023-10-09T12:17:26.030Z,12.75
2023-10-09T12:18:25.754Z,12.75
2023-10-09T12:19:25.682Z,12.72
2023-10-09T12:20:25.668Z,12.72
2023-10-09T12:21:26.826Z,12.70
2023-10-09T12:22:25.739Z,12.73
2023-10-09T12:23:25.673Z,12.75
2023-10-09T12:24:25.643Z,12.80
2023-10-09T12:25:25.613Z,12.85
2023-10-09T12:26:25.650Z,12.86
2023-10-09T12:27:26.623Z,12.85
2023-10-09T12:28:25.730Z,12.86
2023-10-09T12:29:25.676Z,12.86
2023-10-09T12:30:25.574Z,12.86
2023-10-09T12:31:25.906Z,12.87
2023-10-09T12:32:26.607Z,12.86
2023-10-09T12:33:25.632Z,12.87
2023-10-09T12:34:36.436Z,12.86
2023-10-09T12:35:25.577Z,12.90
2023-10-09T12:36:25.513Z,12.87
2023-10-09T12:37:25.560Z,12.90
2023-10-09T12:38:31.824Z,12.87
2023-10-09T12:39:25.440Z,12.85
2023-10-09T12:40:25.534Z,12.85
2023-10-09T12:41:25.432Z,12.86
2023-10-09T12:42:25.484Z,12.85
2023-10-09T12:43:26.436Z,12.86
2023-10-09T12:44:25.590Z,12.85
2023-10-09T12:45:26.358Z,12.85
2023-10-09T12:46:25.397Z,12.85
2023-10-09T12:47:25.429Z,12.85
2023-10-09T12:48:26.315Z,12.85
2023-10-09T12:49:25.310Z,12.86
2023-10-09T12:50:25.334Z,12.87
2023-10-09T12:51:25.302Z,12.90
2023-10-09T12:52:25.305Z,12.90
2023-10-09T12:53:26.239Z,12.90
2023-10-09T12:54:25.212Z,12.87
2023-10-09T12:55:25.384Z,12.86